sensor_id;sensor_type;location;lat;lon;timestamp;temperature;humidity
56753;DHT22;42627;42.646;23.642;2023-08-06T00:25:43;23.50;67.30
56753;DHT22;42627;42.646;23.642;2023-08-06T03:20:40;20.60;92.90
56753;DHT22;42627;42.646;23.642;2023-08-06T03:22:40;19.20;99.90
56753;DHT22;42627;42.646;23.642;2023-08-06T03:24:41;19.00;99.90
56753;DHT22;42627;42.646;23.642;2023-08-06T03:26:41;18.90;99.90
56753;DHT22;42627;42.646;23.642;2023-08-06T03:28:42;18.80;99.90
56753;DHT22;42627;42.646;23.642;2023-08-06T03:30:43;18.80;99.90
56753;DHT22;42627;42.646;23.642;2023-08-06T03:40:48;18.80;99.90
56753;DHT22;42627;42.646;23.642;2023-08-06T03:42:49;18.80;99.90
56753;DHT22;42627;42.646;23.642;2023-08-06T03:44:52;18.70;99.90
56753;DHT22;42627;42.646;23.642;2023-08-06T08:56:27;18.60;99.90
56753;DHT22;42627;42.646;23.642;2023-08-06T13:24:59;22.30;92.00
56753;DHT22;42627;42.646;23.642;2023-08-06T14:21:10;24.50;66.80
56753;DHT22;42627;42.646;23.642;2023-08-06T14:23:21;24.70;63.50
56753;DHT22;42627;42.646;23.642;2023-08-06T14:25:28;24.70;64.60
56753;DHT22;42627;42.646;23.642;2023-08-06T14:27:45;24.70;64.30
56753;DHT22;42627;42.646;23.642;2023-08-06T17:23:15;24.00;71.20
56753;DHT22;42627;42.646;23.642;2023-08-06T17:25:16;23.90;70.00
56753;DHT22;42627;42.646;23.642;2023-08-06T17:27:17;23.80;71.00
56753;DHT22;42627;42.646;23.642;2023-08-06T17:29:20;23.80;71.60
56753;DHT22;42627;42.646;23.642;2023-08-06T18:10:12;23.20;69.40
56753;DHT22;42627;42.646;23.642;2023-08-06T18:12:14;23.20;70.10
56753;DHT22;42627;42.646;23.642;2023-08-06T18:14:14;23.10;70.10
56753;DHT22;42627;42.646;23.642;2023-08-06T18:18:16;23.00;70.20
56753;DHT22;42627;42.646;23.642;2023-08-06T18:20:29;23.00;71.20
56753;DHT22;42627;42.646;23.642;2023-08-06T18:22:39;22.90;72.00
56753;DHT22;42627;42.646;23.642;2023-08-06T18:24:49;22.80;71.90
56753;DHT22;42627;42.646;23.642;2023-08-06T18:26:50;22.80;72.50
56753;DHT22;42627;42.646;23.642;2023-08-06T18:28:50;22.80;73.30
56753;DHT22;42627;42.646;23.642;2023-08-06T18:30:52;22.80;72.60
56753;DHT22;42627;42.646;23.642;2023-08-06T18:32:53;22.70;72.40
56753;DHT22;42627;42.646;23.642;2023-08-06T18:35:13;22.70;72.70
56753;DHT22;42627;42.646;23.642;2023-08-06T18:37:15;22.60;72.80
56753;DHT22;42627;42.646;23.642;2023-08-06T18:39:16;22.60;72.20
56753;DHT22;42627;42.646;23.642;2023-08-06T18:41:17;22.60;72.20
56753;DHT22;42627;42.646;23.642;2023-08-06T18:43:18;22.50;72.10
56753;DHT22;42627;42.646;23.642;2023-08-06T20:08:54;21.50;75.00
56753;DHT22;42627;42.646;23.642;2023-08-06T20:11:06;21.20;75.50
56753;DHT22;42627;42.646;23.642;2023-08-06T20:13:07;21.00;75.90
56753;DHT22;42627;42.646;23.642;2023-08-06T20:15:09;20.80;75.80
56753;DHT22;42627;42.646;23.642;2023-08-06T20:17:10;20.70;76.00
56753;DHT22;42627;42.646;23.642;2023-08-06T20:30:10;20.60;76.40
56753;DHT22;42627;42.646;23.642;2023-08-06T20:36:12;19.90;76.50
56753;DHT22;42627;42.646;23.642;2023-08-06T20:38:13;19.50;77.80
